Terminal Aerodrome Forecast
Issued by NWS Quad Cities IA IL

Home | Current Version | Previous Version | Text Only | Print | Product List | Glossary On
Versions: 1 2 3 4 5 6 7 8 9 10 11 12 13 14 15 16 17 18 19 20 21 22 23 24 25 26 27 28 29 30 31 32 33 34
000
FTUS43 KDVN 241100
TAFDBQ
TAF
KDBQ 241130Z 2412/2512 26005KT 6SM BR SCT015
      TEMPO 2412/2414 2SM BR BKN008
     FM241500 27009KT P6SM SCT030 BKN150
     FM242000 24007KT P6SM BKN150
     FM250500 14005KT 4SM -RASN BR OVC025
     FM250800 07008KT 2SM -SN BR OVC010=

USA.gov is the U.S. government's official web portal to all federal, state and local government web resources and services.